Time;durP1;ratioP1;P1;durP2;ratioP2;P2;SDS_P1;SDS_P2;PMS_P1;PMS_P2;Temp;Humidity;BMP_temperature;BMP_pressure;BME280_temperature;BME280_humidity;BME280_pressure;Samples;Min_cycle;Max_cycle;Signal;HPM_P1;HPM_P2
2022/03/14 00:01:14;;;;;;;9.30;6.72;;;9.10;67.30;;;;;;5036081;28;20188;-70
2022/03/14 00:03:53;;;;;;;9.93;7.03;;;9.10;67.10;;;;;;5036030;28;20053;-70
2022/03/14 00:06:19;;;;;;;9.88;6.78;;;9.00;67.10;;;;;;5036174;28;20064;-70
2022/03/14 00:08:46;;;;;;;8.93;7.20;;;9.10;67.00;;;;;;5035575;28;20470;-70
2022/03/14 00:11:14;;;;;;;9.25;7.43;;;9.10;67.40;;;;;;5034901;28;20041;-70
2022/03/14 00:13:43;;;;;;;9.30;7.40;;;9.10;68.40;;;;;;5035574;28;20528;-70
2022/03/14 00:16:10;;;;;;;11.57;7.75;;;9.00;68.30;;;;;;5035801;28;20049;-70
2022/03/14 00:18:36;;;;;;;11.20;7.63;;;9.10;67.80;;;;;;5035551;28;20053;-69
2022/03/14 00:21:02;;;;;;;11.13;7.68;;;9.10;68.20;;;;;;5035534;28;20046;-70
2022/03/14 00:23:28;;;;;;;10.05;7.47;;;9.10;68.40;;;;;;5035598;28;20049;-70
2022/03/14 00:25:54;;;;;;;9.23;7.45;;;9.10;68.60;;;;;;5035535;28;20056;-70
2022/03/14 00:28:20;;;;;;;9.63;7.07;;;9.10;69.20;;;;;;5035340;28;20057;-70
2022/03/14 00:30:46;;;;;;;10.15;7.15;;;9.10;69.20;;;;;;5035490;28;20049;-70
2022/03/14 00:33:12;;;;;;;7.95;7.05;;;9.50;69.10;;;;;;5035522;28;20098;-69
2022/03/14 00:35:38;;;;;;;11.25;7.85;;;9.10;69.10;;;;;;5017903;28;20045;-70
2022/03/14 00:38:04;;;;;;;9.73;7.38;;;9.10;68.80;;;;;;5034445;28;20055;-70
2022/03/14 00:40:29;;;;;;;10.75;8.02;;;9.20;69.00;;;;;;5035833;28;20045;-70
2022/03/14 00:42:55;;;;;;;10.23;7.78;;;9.10;69.10;;;;;;5034192;28;20037;-70
2022/03/14 00:45:25;;;;;;;10.25;7.90;;;9.10;69.70;;;;;;5035107;28;20049;-70
2022/03/14 00:47:51;;;;;;;9.85;7.68;;;9.00;70.20;;;;;;5035214;28;20402;-70
2022/03/14 00:50:17;;;;;;;9.80;7.75;;;9.10;70.90;;;;;;5034377;28;20131;-70
2022/03/14 00:52:42;;;;;;;9.90;7.97;;;9.00;70.60;;;;;;5035098;28;20053;-71
2022/03/14 00:55:08;;;;;;;10.50;7.82;;;9.00;70.70;;;;;;5033898;28;20053;-70
2022/03/14 00:57:35;;;;;;;12.20;8.05;;;9.00;71.20;;;;;;5017569;28;20123;-70
2022/03/14 01:00:01;;;;;;;13.95;8.90;;;9.10;71.50;;;;;;5033792;28;20544;-70
2022/03/14 01:02:27;;;;;;;11.20;8.10;;;9.30;72.40;;;;;;5035431;28;20057;-70
2022/03/14 01:04:52;;;;;;;9.70;8.02;;;8.90;72.80;;;;;;5034146;28;20088;-71
2022/03/14 01:07:18;;;;;;;9.98;7.78;;;8.90;72.80;;;;;;5034851;28;20053;-70
2022/03/14 01:09:44;;;;;;;11.65;8.07;;;9.00;73.60;;;;;;5034769;28;20132;-71
2022/03/14 01:12:09;;;;;;;11.18;8.00;;;8.80;73.70;;;;;;5034998;28;20140;-70
2022/03/14 01:14:36;;;;;;;10.88;8.75;;;8.70;73.90;;;;;;5034727;28;20048;-70
2022/03/14 01:17:01;;;;;;;10.27;8.57;;;8.70;74.50;;;;;;5034653;28;20046;-70
2022/03/14 01:19:27;;;;;;;10.50;8.45;;;8.70;75.30;;;;;;5034389;28;20049;-70
2022/03/14 01:21:53;;;;;;;11.43;8.82;;;8.50;75.80;;;;;;5033333;28;20363;-70
2022/03/14 01:24:18;;;;;;;11.82;8.63;;;8.50;76.20;;;;;;5016837;28;20052;-70
2022/03/14 01:26:44;;;;;;;11.25;9.07;;;8.80;76.00;;;;;;5017052;28;20135;-70
2022/03/14 01:29:10;;;;;;;12.63;8.60;;;8.40;76.20;;;;;;5033692;28;20371;-71
2022/03/14 01:31:36;;;;;;;11.55;8.38;;;8.30;76.60;;;;;;5033723;28;20052;-70
2022/03/14 01:34:03;;;;;;;10.60;8.57;;;8.40;76.90;;;;;;5033958;28;20041;-70
2022/03/14 01:36:29;;;;;;;11.93;9.18;;;8.20;77.00;;;;;;5033004;28;20049;-70
2022/03/14 01:38:56;;;;;;;11.77;8.75;;;8.20;78.00;;;;;;5035012;28;20056;-70
2022/03/14 01:41:26;;;;;;;12.10;8.60;;;8.20;78.10;;;;;;5016984;28;20064;-70
2022/03/14 01:43:52;;;;;;;12.43;8.40;;;8.20;78.20;;;;;;5033492;28;20049;-70
2022/03/14 01:46:18;;;;;;;13.35;8.20;;;8.20;78.40;;;;;;5016502;28;20100;-70
2022/03/14 01:48:44;;;;;;;12.48;8.23;;;8.30;78.80;;;;;;5033056;28;20057;-70
2022/03/14 01:51:10;;;;;;;14.45;9.27;;;8.30;78.90;;;;;;5016502;28;20136;-69
2022/03/14 01:53:36;;;;;;;11.90;8.07;;;8.40;78.60;;;;;;5034677;28;20085;-70
2022/03/14 01:56:03;;;;;;;11.45;9.02;;;8.40;78.60;;;;;;5033978;28;20394;-70
2022/03/14 01:58:29;;;;;;;12.10;8.68;;;8.50;78.90;;;;;;5033933;28;20049;-70
2022/03/14 02:00:55;;;;;;;11.43;8.68;;;8.60;79.60;;;;;;5033923;28;20102;-70
2022/03/14 02:03:20;;;;;;;11.82;8.32;;;8.50;80.20;;;;;;5034088;28;20045;-70
2022/03/14 02:05:47;;;;;;;11.88;8.55;;;8.50;80.60;;;;;;5016697;28;20450;-70
2022/03/14 02:08:13;;;;;;;11.45;8.30;;;8.50;81.00;;;;;;5016011;28;20045;-70
2022/03/14 02:10:38;;;;;;;12.23;8.45;;;8.50;81.20;;;;;;5032538;28;20045;-70
2022/03/14 02:13:11;;;;;;;12.70;8.15;;;8.50;81.80;;;;;;5016329;28;20084;-70
2022/03/14 02:15:38;;;;;;;11.93;8.65;;;8.50;81.90;;;;;;5032999;28;20033;-69
2022/03/14 02:18:04;;;;;;;11.52;8.90;;;8.50;81.40;;;;;;5033697;28;20148;-70
2022/03/14 02:20:30;;;;;;;11.35;8.50;;;8.50;82.20;;;;;;5032104;28;20045;-69
2022/03/14 02:22:55;;;;;;;10.68;8.05;;;8.50;82.50;;;;;;5033609;28;20072;-70
2022/03/14 02:25:21;;;;;;;10.65;8.38;;;8.50;82.80;;;;;;5033258;28;20068;-70
2022/03/14 02:27:47;;;;;;;10.55;8.50;;;8.50;82.20;;;;;;5033351;28;20156;-69
2022/03/14 02:30:13;;;;;;;12.00;9.02;;;8.50;82.40;;;;;;5034155;28;20108;-70
2022/03/14 02:32:41;;;;;;;13.10;8.98;;;8.50;83.30;;;;;;5016794;28;20077;-70
2022/03/14 02:35:08;;;;;;;11.60;8.50;;;8.50;83.50;;;;;;5033752;28;20444;-70
2022/03/14 02:37:34;;;;;;;10.60;7.35;;;8.50;83.60;;;;;;5032772;28;20061;-70
2022/03/14 02:40:00;;;;;;;8.65;6.85;;;8.50;83.70;;;;;;5032470;28;20049;-70
2022/03/14 02:42:26;;;;;;;10.13;7.38;;;8.50;83.90;;;;;;5033925;28;20119;-70
2022/03/14 02:44:52;;;;;;;10.07;7.05;;;8.60;84.20;;;;;;5015875;28;20080;-70
2022/03/14 02:47:18;;;;;;;9.32;7.00;;;8.60;84.50;;;;;;5032152;28;20045;-70
2022/03/14 02:49:44;;;;;;;9.63;6.85;;;8.60;84.40;;;;;;5031862;28;20591;-70
2022/03/14 02:52:10;;;;;;;9.35;7.10;;;9.20;85.00;;;;;;5033253;28;20088;-70
2022/03/14 02:54:35;;;;;;;11.20;7.15;;;8.80;84.90;;;;;;5032598;28;20461;-70
2022/03/14 02:57:02;;;;;;;9.20;7.10;;;8.80;85.30;;;;;;5015918;28;20049;-70
2022/03/14 02:59:28;;;;;;;8.82;6.78;;;8.80;85.90;;;;;;5032952;28;20506;-70
2022/03/14 03:01:54;;;;;;;9.15;6.63;;;8.80;86.60;;;;;;5032111;28;20084;-70
2022/03/14 03:04:20;;;;;;;8.95;6.82;;;8.80;86.50;;;;;;5016796;28;20084;-70
2022/03/14 03:06:45;;;;;;;9.77;6.90;;;8.80;86.90;;;;;;5035798;28;20081;-70
2022/03/14 03:09:11;;;;;;;9.80;6.30;;;8.90;87.10;;;;;;5037184;28;20050;-70
2022/03/14 03:11:37;;;;;;;10.75;7.00;;;8.90;87.40;;;;;;5003607;28;20132;-70
2022/03/14 03:14:03;;;;;;;9.95;6.43;;;8.90;87.80;;;;;;5037655;28;20133;-70
2022/03/14 03:16:31;;;;;;;8.38;6.72;;;8.90;88.10;;;;;;5037025;28;20052;-70
2022/03/14 03:18:57;;;;;;;8.18;6.22;;;8.90;88.30;;;;;;5036312;28;20128;-70
2022/03/14 03:21:23;;;;;;;8.57;6.45;;;8.90;88.70;;;;;;5035696;28;20103;-70
2022/03/14 03:23:49;;;;;;;9.40;7.32;;;8.90;89.10;;;;;;5036798;28;20045;-70
2022/03/14 03:26:15;;;;;;;11.50;7.40;;;8.90;89.60;;;;;;5019202;28;20466;-70
2022/03/14 03:28:41;;;;;;;8.52;6.30;;;8.90;89.60;;;;;;5036866;28;20057;-70
2022/03/14 03:31:19;;;;;;;8.30;6.07;;;9.00;90.10;;;;;;5035883;28;20049;-70
2022/03/14 03:33:47;;;;;;;8.27;6.18;;;9.00;90.20;;;;;;5020175;28;20053;-70
2022/03/14 03:36:13;;;;;;;10.10;6.00;;;8.90;90.40;;;;;;5037235;28;20092;-70
2022/03/14 03:38:39;;;;;;;8.52;6.03;;;8.90;90.50;;;;;;5036378;28;20044;-70
2022/03/14 03:41:05;;;;;;;10.43;6.43;;;9.00;90.50;;;;;;5036574;28;20053;-70
2022/03/14 03:43:32;;;;;;;7.57;6.10;;;9.00;90.60;;;;;;5036850;28;20089;-70
2022/03/14 03:45:58;;;;;;;8.65;5.90;;;9.00;90.70;;;;;;5035384;28;20436;-70
2022/03/14 03:48:24;;;;;;;7.80;6.07;;;9.10;90.80;;;;;;5036448;28;20041;-70
2022/03/14 03:50:49;;;;;;;6.93;5.70;;;9.00;90.80;;;;;;5036045;28;20041;-69
2022/03/14 03:53:15;;;;;;;10.23;6.05;;;9.10;90.90;;;;;;5036937;28;20045;-70
2022/03/14 03:55:41;;;;;;;7.53;6.00;;;9.20;91.00;;;;;;5036397;28;20045;-70
2022/03/14 03:58:07;;;;;;;8.65;5.72;;;9.10;91.00;;;;;;5035204;28;20085;-70
2022/03/14 04:00:33;;;;;;;8.15;5.88;;;9.10;90.90;;;;;;5036243;28;20052;-70
2022/03/14 04:02:59;;;;;;;9.65;5.95;;;9.10;91.00;;;;;;5034911;28;20045;-70
2022/03/14 04:05:27;;;;;;;8.25;5.72;;;9.10;91.10;;;;;;5036042;28;20080;-70
2022/03/14 04:07:55;;;;;;;9.77;6.07;;;9.10;91.20;;;;;;5036022;28;20049;-70
2022/03/14 04:10:21;;;;;;;7.65;6.15;;;9.20;91.20;;;;;;5034971;28;20084;-70
2022/03/14 04:12:47;;;;;;;8.23;5.93;;;9.20;91.30;;;;;;5034971;28;20084;-70
2022/03/14 04:15:14;;;;;;;8.80;5.93;;;9.20;91.50;;;;;;5035865;28;20129;-70
2022/03/14 04:17:42;;;;;;;9.93;5.70;;;9.20;91.60;;;;;;5034408;28;20108;-70
2022/03/14 04:20:11;;;;;;;6.88;5.65;;;9.20;91.70;;;;;;5035762;28;20060;-70
2022/03/14 04:22:39;;;;;;;8.55;5.78;;;9.20;91.90;;;;;;5034506;28;20136;-70
2022/03/14 04:25:07;;;;;;;8.10;5.43;;;9.20;92.10;;;;;;5035563;28;20048;-70
2022/03/14 04:27:33;;;;;;;7.47;5.50;;;9.20;92.20;;;;;;5035618;28;20096;-70
2022/03/14 04:29:59;;;;;;;6.75;5.30;;;9.20;92.70;;;;;;5033869;28;20053;-70
2022/03/14 04:32:25;;;;;;;6.70;4.95;;;9.20;92.60;;;;;;5035533;28;20064;-69
2022/03/14 04:34:51;;;;;;;7.65;5.22;;;9.20;92.70;;;;;;5034386;28;20056;-70
2022/03/14 04:37:16;;;;;;;7.30;4.88;;;9.20;92.80;;;;;;5035441;28;20041;-70
2022/03/14 04:39:43;;;;;;;7.70;4.88;;;9.20;92.90;;;;;;5034243;28;20049;-70
2022/03/14 04:42:09;;;;;;;7.75;4.43;;;9.20;93.10;;;;;;5035369;28;20080;-70
2022/03/14 04:44:37;;;;;;;6.78;4.80;;;9.20;93.30;;;;;;5034112;28;20077;-70
2022/03/14 04:47:03;;;;;;;6.70;5.20;;;9.20;93.40;;;;;;5035173;28;20048;-70
2022/03/14 04:49:29;;;;;;;6.05;4.47;;;9.20;93.60;;;;;;5034008;28;20053;-70
2022/03/14 04:51:55;;;;;;;7.07;4.53;;;9.20;93.70;;;;;;5034918;28;20103;-70
2022/03/14 04:54:24;;;;;;;6.53;4.57;;;9.20;93.90;;;;;;5035338;28;20061;-70
2022/03/14 04:56:52;;;;;;;5.55;4.30;;;9.20;94.00;;;;;;5035000;28;20049;-70
2022/03/14 04:59:17;;;;;;;5.38;3.92;;;9.30;94.30;;;;;;5035323;28;20111;-70
2022/03/14 05:01:43;;;;;;;5.70;4.32;;;9.30;94.40;;;;;;5034608;28;20042;-70
2022/03/14 05:04:09;;;;;;;6.80;4.10;;;9.20;94.60;;;;;;5033682;28;20081;-70
2022/03/14 05:06:35;;;;;;;4.88;3.65;;;9.20;94.80;;;;;;5034770;28;20084;-70
2022/03/14 05:09:01;;;;;;;4.75;3.53;;;9.30;95.20;;;;;;5033548;28;20052;-70
2022/03/14 05:11:27;;;;;;;5.35;3.47;;;9.30;95.40;;;;;;5033565;28;20117;-70
2022/03/14 05:13:54;;;;;;;5.65;3.90;;;9.30;95.60;;;;;;5016929;28;20132;-70
2022/03/14 05:16:20;;;;;;;4.60;3.13;;;9.20;95.70;;;;;;5034661;28;20045;-70
2022/03/14 05:18:46;;;;;;;7.25;3.90;;;9.20;95.90;;;;;;5017480;28;20072;-70
2022/03/14 05:21:13;;;;;;;4.43;3.50;;;9.30;96.10;;;;;;5033535;28;20497;-69
2022/03/14 05:23:40;;;;;;;4.95;3.00;;;9.30;96.30;;;;;;5034542;28;20054;-70
2022/03/14 05:26:06;;;;;;;3.78;3.10;;;9.30;96.60;;;;;;5034424;28;20088;-69
2022/03/14 05:28:32;;;;;;;4.55;3.00;;;9.30;97.10;;;;;;5033794;28;20053;-69
2022/03/14 05:30:58;;;;;;;4.43;3.15;;;9.30;97.50;;;;;;5033237;28;20053;-69
2022/03/14 05:33:24;;;;;;;3.92;2.63;;;9.30;97.80;;;;;;5034344;28;20060;-69
2022/03/14 05:35:50;;;;;;;5.00;2.97;;;9.20;98.30;;;;;;5034365;28;20040;-69
2022/03/14 05:38:16;;;;;;;4.75;3.00;;;9.30;98.60;;;;;;5034230;28;20049;-69
2022/03/14 05:40:42;;;;;;;4.00;2.75;;;9.50;99.20;;;;;;5033531;28;20045;-70
2022/03/14 05:43:09;;;;;;;3.45;2.83;;;9.20;99.40;;;;;;5033203;28;20135;-69
2022/03/14 05:45:35;;;;;;;4.55;2.75;;;9.20;99.90;;;;;;5033396;28;20046;-69
2022/03/14 05:48:02;;;;;;;3.75;2.75;;;9.20;99.90;;;;;;5034861;28;20374;-69
2022/03/14 05:50:27;;;;;;;3.90;2.78;;;9.20;99.90;;;;;;5032759;28;20037;-69
2022/03/14 05:52:53;;;;;;;4.47;2.92;;;9.20;99.90;;;;;;5017396;28;20111;-69
2022/03/14 05:55:19;;;;;;;5.22;3.13;;;9.20;99.90;;;;;;5032838;28;20047;-69
2022/03/14 05:57:45;;;;;;;5.07;3.50;;;9.20;99.90;;;;;;5033883;28;20045;-69
2022/03/14 06:00:13;;;;;;;3.40;2.22;;;9.20;99.90;;;;;;5034448;28;20057;-69
2022/03/14 06:02:44;;;;;;;4.72;3.13;;;9.10;99.90;;;;;;5034197;28;20460;-69
2022/03/14 06:05:10;;;;;;;4.25;3.22;;;9.10;99.90;;;;;;5033176;28;20059;-69
2022/03/14 06:07:35;;;;;;;5.50;3.33;;;9.10;99.90;;;;;;5032631;28;20124;-69
2022/03/14 06:10:01;;;;;;;4.38;3.33;;;9.00;99.90;;;;;;5034095;28;20060;-69
2022/03/14 06:12:29;;;;;;;4.43;3.35;;;9.10;99.90;;;;;;5016348;28;20540;-70
2022/03/14 06:14:57;;;;;;;4.85;3.53;;;9.10;99.90;;;;;;5033284;28;20486;-69
2022/03/14 06:17:23;;;;;;;4.50;3.03;;;9.00;99.90;;;;;;5034195;28;20390;-69
2022/03/14 06:19:50;;;;;;;4.43;3.00;;;9.10;99.90;;;;;;5033026;28;20367;-69
2022/03/14 06:22:21;;;;;;;4.10;2.80;;;9.10;99.90;;;;;;5032540;28;20127;-69
2022/03/14 06:24:48;;;;;;;6.00;3.15;;;9.00;99.90;;;;;;5033344;28;20520;-69
2022/03/14 06:27:22;;;;;;;5.90;3.30;;;9.00;99.90;;;;;;5033518;28;20042;-69
2022/03/14 06:29:48;;;;;;;5.47;3.30;;;9.00;99.90;;;;;;5032004;28;20068;-69
2022/03/14 06:32:15;;;;;;;4.93;3.50;;;9.00;99.90;;;;;;5032608;28;20370;-69
2022/03/14 06:34:42;;;;;;;4.65;3.05;;;9.00;99.90;;;;;;5032256;28;20482;-70
2022/03/14 06:37:09;;;;;;;5.40;3.63;;;8.90;99.90;;;;;;5032544;28;20061;-69
2022/03/14 06:39:36;;;;;;;5.97;3.63;;;8.90;99.90;;;;;;5032643;28;20092;-69
2022/03/14 06:42:09;;;;;;;5.07;3.60;;;8.90;99.90;;;;;;5036637;28;20053;-69
2022/03/14 06:44:38;;;;;;;6.10;3.83;;;8.80;99.90;;;;;;5038386;28;20049;-69
2022/03/14 06:47:09;;;;;;;5.60;4.18;;;8.80;99.90;;;;;;5020485;28;20474;-70
2022/03/14 06:49:39;;;;;;;5.40;4.15;;;8.80;99.90;;;;;;5036277;28;20091;-70
2022/03/14 06:52:05;;;;;;;6.25;4.28;;;8.80;99.90;;;;;;5037398;28;20092;-69
2022/03/14 06:54:32;;;;;;;3.92;3.47;;;8.80;99.90;;;;;;5037061;28;20053;-69
2022/03/14 06:56:58;;;;;;;4.80;4.03;;;8.80;99.90;;;;;;5037287;28;20042;-70
2022/03/14 06:59:23;;;;;;;5.97;4.40;;;8.80;99.90;;;;;;5037287;28;20081;-69
2022/03/14 07:01:49;;;;;;;6.30;4.60;;;8.80;99.90;;;;;;5037775;28;20088;-69
2022/03/14 07:04:15;;;;;;;5.05;4.43;;;8.80;99.90;;;;;;5035972;28;20106;-70
2022/03/14 07:06:41;;;;;;;5.18;3.90;;;8.90;99.90;;;;;;5037061;28;20099;-70
2022/03/14 07:09:09;;;;;;;5.32;3.92;;;9.40;99.90;;;;;;5019590;28;20123;-69
2022/03/14 07:11:35;;;;;;;6.40;4.20;;;8.80;99.90;;;;;;5036092;28;20057;-69
2022/03/14 07:14:00;;;;;;;7.93;3.90;;;8.80;99.90;;;;;;5037017;28;20037;-69
2022/03/14 07:16:26;;;;;;;6.80;4.72;;;8.80;99.90;;;;;;5019476;28;20119;-70
2022/03/14 07:18:52;;;;;;;6.75;4.97;;;8.80;99.90;;;;;;5037711;28;20139;-69
2022/03/14 07:21:18;;;;;;;8.18;4.93;;;8.80;99.90;;;;;;5036800;28;20068;-69
2022/03/14 07:23:44;;;;;;;7.10;4.47;;;8.80;99.90;;;;;;5035909;28;20398;-70
2022/03/14 07:26:10;;;;;;;7.25;5.10;;;8.80;99.90;;;;;;5035193;28;20052;-69
2022/03/14 07:28:35;;;;;;;9.40;5.53;;;8.80;99.90;;;;;;5036796;28;20600;-69
2022/03/14 07:31:01;;;;;;;9.55;6.55;;;8.90;99.90;;;;;;5020041;28;20061;-70
2022/03/14 07:33:28;;;;;;;7.90;5.13;;;8.80;99.90;;;;;;5019208;28;20557;-70
2022/03/14 07:35:55;;;;;;;8.63;5.22;;;8.90;99.90;;;;;;5019156;28;20137;-69
2022/03/14 07:38:21;;;;;;;6.82;4.68;;;8.90;99.90;;;;;;5035770;28;20049;-70
2022/03/14 07:40:46;;;;;;;6.45;4.70;;;8.90;99.90;;;;;;5036527;28;20056;-70
2022/03/14 07:43:12;;;;;;;7.57;4.65;;;8.90;99.90;;;;;;5037298;28;20088;-70
2022/03/14 07:45:38;;;;;;;11.40;6.97;;;8.90;99.90;;;;;;5035350;28;20073;-69
2022/03/14 07:48:04;;;;;;;7.65;5.30;;;8.90;99.90;;;;;;5036877;28;20128;-70
2022/03/14 07:50:30;;;;;;;7.88;5.18;;;8.90;99.90;;;;;;5034976;28;20062;-67
2022/03/14 07:52:56;;;;;;;9.88;4.90;;;8.90;99.90;;;;;;5036252;28;20049;-70
2022/03/14 07:55:22;;;;;;;7.05;4.68;;;8.90;99.90;;;;;;5035530;28;20050;-70
2022/03/14 07:57:48;;;;;;;7.57;5.22;;;8.90;99.90;;;;;;5037046;28;20045;-70
2022/03/14 08:00:18;;;;;;;8.65;6.00;;;8.90;99.90;;;;;;5034949;28;20478;-69
2022/03/14 08:02:45;;;;;;;7.82;5.22;;;9.00;99.90;;;;;;5035603;28;20049;-69
2022/03/14 08:05:16;;;;;;;7.55;4.70;;;9.00;99.90;;;;;;5018807;28;20049;-69
2022/03/14 08:07:45;;;;;;;6.45;5.10;;;9.00;99.90;;;;;;5036639;28;20053;-70
2022/03/14 08:10:12;;;;;;;8.02;5.35;;;9.00;99.90;;;;;;5035923;28;20123;-70
2022/03/14 08:12:50;;;;;;;9.40;6.03;;;9.00;99.90;;;;;;5035273;28;20084;-69
2022/03/14 08:15:25;;;;;;;6.05;4.60;;;9.00;99.90;;;;;;5036054;28;20056;-69
2022/03/14 08:17:53;;;;;;;6.72;4.68;;;9.00;99.90;;;;;;5034994;28;20056;-69
2022/03/14 08:20:21;;;;;;;6.30;4.22;;;9.00;99.90;;;;;;5035938;28;20037;-69
2022/03/14 08:22:47;;;;;;;6.32;4.07;;;9.10;99.90;;;;;;5035807;28;20124;-69
2022/03/14 08:25:14;;;;;;;8.00;4.88;;;9.10;99.90;;;;;;5035761;28;20132;-69
2022/03/14 08:27:39;;;;;;;5.47;3.92;;;9.10;99.90;;;;;;5035774;28;20056;-70
2022/03/14 08:30:06;;;;;;;6.55;4.47;;;8.90;99.90;;;;;;5036235;28;20060;-69
2022/03/14 08:32:35;;;;;;;7.90;4.63;;;9.10;99.90;;;;;;5035697;28;20135;-69
2022/03/14 08:35:08;;;;;;;6.38;4.35;;;9.20;99.90;;;;;;5035639;28;20041;-70
2022/03/14 08:37:40;;;;;;;6.07;4.45;;;9.10;99.90;;;;;;5036435;28;20470;-70
2022/03/14 08:40:09;;;;;;;5.97;4.22;;;9.10;99.90;;;;;;5035593;28;20045;-69
2022/03/14 08:42:36;;;;;;;6.25;4.30;;;9.10;99.90;;;;;;5034363;28;20061;-70
2022/03/14 08:45:02;;;;;;;16.33;11.95;;;9.10;99.90;;;;;;5035396;28;20108;-69
2022/03/14 08:47:28;;;;;;;7.57;5.60;;;9.10;99.90;;;;;;5034239;28;20111;-70
2022/03/14 08:49:54;;;;;;;6.47;5.07;;;9.10;99.90;;;;;;5035430;28;20057;-68
2022/03/14 08:52:19;;;;;;;6.30;4.53;;;9.50;99.90;;;;;;5036075;28;20049;-71
2022/03/14 08:54:45;;;;;;;6.00;4.32;;;9.20;99.90;;;;;;5035835;28;20042;-70
2022/03/14 08:57:11;;;;;;;5.38;4.22;;;9.20;99.90;;;;;;5017702;28;20051;-71
2022/03/14 08:59:36;;;;;;;6.90;4.95;;;9.20;99.90;;;;;;5035150;28;20046;-71
2022/03/14 09:02:02;;;;;;;5.78;4.43;;;9.20;99.90;;;;;;5033396;28;20045;-70
2022/03/14 09:04:28;;;;;;;8.00;4.78;;;9.20;99.90;;;;;;5034885;28;20482;-70
2022/03/14 09:06:54;;;;;;;7.75;5.35;;;9.20;99.90;;;;;;5034960;28;20052;-70
2022/03/14 09:09:20;;;;;;;8.05;5.65;;;9.20;99.90;;;;;;5034672;28;20571;-70
2022/03/14 09:11:46;;;;;;;8.43;5.50;;;9.20;99.90;;;;;;5034960;28;20132;-70
2022/03/14 09:14:11;;;;;;;6.03;4.63;;;9.20;99.90;;;;;;5035151;28;20049;-71
2022/03/14 09:16:38;;;;;;;6.88;5.28;;;9.20;99.90;;;;;;5034788;28;20478;-71
2022/03/14 09:19:04;;;;;;;6.53;4.75;;;9.30;99.90;;;;;;5034470;28;20522;-72
2022/03/14 09:21:32;;;;;;;8.43;5.68;;;9.30;99.90;;;;;;5035191;28;20084;-71
2022/03/14 09:23:58;;;;;;;7.45;5.25;;;9.30;99.90;;;;;;5034666;28;20050;-72
2022/03/14 09:26:24;;;;;;;8.25;5.28;;;9.30;99.90;;;;;;5034267;28;20529;-71
2022/03/14 09:28:50;;;;;;;10.25;5.72;;;9.30;99.90;;;;;;5033296;28;20060;-71
2022/03/14 09:31:16;;;;;;;9.35;5.63;;;9.30;99.90;;;;;;5034549;28;20049;-71
2022/03/14 09:33:42;;;;;;;7.60;5.47;;;9.40;99.90;;;;;;5033561;28;20052;-71
2022/03/14 09:36:09;;;;;;;8.18;5.82;;;9.30;99.90;;;;;;5034435;28;20038;-71
2022/03/14 09:38:34;;;;;;;8.68;6.35;;;9.40;99.90;;;;;;5033422;28;20092;-71
2022/03/14 09:41:03;;;;;;;7.68;5.78;;;9.40;99.90;;;;;;5033660;28;20084;-68
2022/03/14 09:43:37;;;;;;;6.95;5.35;;;9.40;99.90;;;;;;5033669;28;20183;-68
2022/03/14 09:46:07;;;;;;;7.47;5.40;;;9.40;99.90;;;;;;5034020;28;20123;-69
2022/03/14 09:48:36;;;;;;;8.13;5.60;;;9.50;99.90;;;;;;5033455;28;20132;-68
2022/03/14 09:51:04;;;;;;;8.82;6.43;;;9.50;99.90;;;;;;5033263;28;20161;-69
2022/03/14 09:53:32;;;;;;;9.40;6.20;;;9.50;99.90;;;;;;5033109;28;20053;-68
2022/03/14 09:55:57;;;;;;;6.82;5.65;;;9.50;99.90;;;;;;5032333;28;20179;-69
2022/03/14 09:58:23;;;;;;;9.48;6.75;;;9.50;99.90;;;;;;5033513;28;20052;-69
2022/03/14 10:00:50;;;;;;;7.68;5.47;;;9.50;99.90;;;;;;5032293;28;20053;-69
2022/03/14 10:03:17;;;;;;;9.05;6.63;;;9.60;99.90;;;;;;5033828;28;20045;-69
2022/03/14 10:05:44;;;;;;;11.77;7.35;;;9.50;99.90;;;;;;5032622;28;20045;-67
2022/03/14 10:08:11;;;;;;;9.23;6.43;;;9.60;99.90;;;;;;5033645;28;20049;-68
2022/03/14 10:10:38;;;;;;;9.45;7.80;;;9.50;99.90;;;;;;5031856;28;20160;-68
2022/03/14 10:13:07;;;;;;;11.02;7.70;;;9.60;99.90;;;;;;5033744;28;20049;-68
2022/03/14 10:15:37;;;;;;;17.63;11.68;;;9.60;99.90;;;;;;5031715;28;20041;-68
2022/03/14 10:18:16;;;;;;;14.65;10.07;;;9.50;99.90;;;;;;5033969;28;20063;-69
2022/03/14 10:21:10;;;;;;;8.65;7.15;;;9.60;99.90;;;;;;5033477;28;20053;-66
2022/03/14 10:23:44;;;;;;;9.13;7.00;;;9.60;99.90;;;;;;5032893;28;20382;-68
2022/03/14 10:26:16;;;;;;;10.32;7.32;;;9.60;99.90;;;;;;5032757;28;20081;-68
2022/03/14 10:28:48;;;;;;;9.10;6.90;;;9.60;99.90;;;;;;5032494;28;20132;-69
2022/03/14 10:31:14;;;;;;;9.25;6.57;;;9.60;99.90;;;;;;5032404;28;20066;-69
2022/03/14 10:33:40;;;;;;;9.20;6.57;;;9.60;99.90;;;;;;5031469;28;20092;-69
2022/03/14 10:36:06;;;;;;;8.95;6.38;;;9.90;99.90;;;;;;5032634;28;20046;-68
2022/03/14 10:38:42;;;;;;;9.23;6.70;;;9.50;99.90;;;;;;5032713;28;20378;-69
2022/03/14 10:41:15;;;;;;;10.05;7.40;;;9.70;99.90;;;;;;5032164;28;20050;-68
2022/03/14 10:43:42;;;;;;;12.02;7.22;;;9.60;99.90;;;;;;5030698;28;20053;-68
2022/03/14 10:46:08;;;;;;;11.05;7.22;;;9.60;99.90;;;;;;5031957;28;20045;-68
2022/03/14 10:48:43;;;;;;;8.73;6.93;;;9.60;99.90;;;;;;5031625;28;20414;-67
2022/03/14 10:51:18;;;;;;;8.95;7.00;;;9.60;99.90;;;;;;5030355;28;20104;-68
2022/03/14 10:53:47;;;;;;;12.82;8.15;;;9.60;99.90;;;;;;5032044;28;20053;-68
2022/03/14 10:56:15;;;;;;;8.60;7.35;;;9.70;99.90;;;;;;5031210;28;20395;-68
2022/03/14 10:58:43;;;;;;;9.50;7.13;;;9.60;99.90;;;;;;5032472;28;20442;-69
2022/03/14 11:01:10;;;;;;;13.07;8.30;;;9.60;99.90;;;;;;5031683;28;20497;-69
2022/03/14 11:03:39;;;;;;;9.43;6.80;;;9.60;99.90;;;;;;5030978;28;20494;-69
2022/03/14 11:06:07;;;;;;;10.15;6.57;;;9.60;99.90;;;;;;5030323;28;20498;-69
2022/03/14 11:08:38;;;;;;;9.70;6.10;;;9.50;99.90;;;;;;5031555;28;20049;-68
2022/03/14 11:11:10;;;;;;;9.63;5.80;;;9.40;99.90;;;;;;5032061;28;20097;-73
2022/03/14 11:13:43;;;;;;;10.05;4.90;;;9.40;99.90;;;;;;5031189;28;20064;-70
2022/03/14 11:16:23;;;;;;;9.02;5.47;;;9.20;99.90;;;;;;5030867;28;20092;-69
2022/03/14 11:18:51;;;;;;;9.57;5.38;;;9.20;99.90;;;;;;5031192;28;20129;-69
2022/03/14 11:21:21;;;;;;;11.85;6.65;;;9.30;99.90;;;;;;5030958;28;20104;-70
2022/03/14 11:23:49;;;;;;;11.57;6.85;;;9.20;99.90;;;;;;5032236;28;20046;-68
2022/03/14 11:26:19;;;;;;;11.93;6.63;;;9.10;99.90;;;;;;5031969;28;20405;-68
2022/03/14 11:28:48;;;;;;;13.15;7.22;;;9.10;99.90;;;;;;4997352;28;1103557;-68
2022/03/14 11:31:14;;;;;;;12.60;6.70;;;9.10;99.90;;;;;;5035499;28;20060;-68
2022/03/14 11:33:43;;;;;;;13.63;7.05;;;9.10;99.90;;;;;;5036648;28;20041;-68
2022/03/14 11:36:09;;;;;;;11.90;6.72;;;9.20;99.90;;;;;;5036703;28;20473;-68
2022/03/14 11:38:35;;;;;;;11.43;6.65;;;9.00;99.90;;;;;;5036659;28;20049;-68
2022/03/14 11:41:02;;;;;;;11.50;6.63;;;9.10;99.90;;;;;;5037338;28;20086;-67
2022/03/14 11:43:29;;;;;;;14.07;7.35;;;9.10;99.90;;;;;;5036585;28;20057;-67
2022/03/14 11:46:01;;;;;;;13.02;6.85;;;9.10;99.90;;;;;;5036433;28;20060;-67
2022/03/14 11:48:34;;;;;;;12.30;7.05;;;9.10;99.90;;;;;;5036494;28;20054;-67
2022/03/14 11:51:03;;;;;;;15.40;7.72;;;9.10;99.90;;;;;;5036047;28;20562;-66
2022/03/14 11:53:36;;;;;;;14.90;7.55;;;9.20;99.90;;;;;;5036960;28;20180;-66
2022/03/14 11:56:05;;;;;;;14.60;8.18;;;9.20;99.90;;;;;;5035338;28;20146;-66
2022/03/14 11:58:49;;;;;;;16.23;7.80;;;9.20;99.90;;;;;;5036001;28;20506;-67
2022/03/14 12:01:42;;;;;;;25.25;13.02;;;9.20;99.90;;;;;;5036219;28;20053;-66
2022/03/14 12:04:25;;;;;;;13.63;6.53;;;9.20;99.90;;;;;;5032775;28;20057;-67
2022/03/14 12:06:57;;;;;;;;;;;9.20;99.90;;;;;;5037080;28;20049;-67
2022/03/14 12:09:26;;;;;;;16.77;8.07;;;9.20;99.90;;;;;;5036091;28;20345;-67
2022/03/14 12:11:53;;;;;;;15.57;7.75;;;9.20;99.90;;;;;;5036253;28;20138;-67
2022/03/14 12:14:39;;;;;;;14.40;7.05;;;9.20;99.90;;;;;;5035974;28;20115;-67
2022/03/14 12:17:23;;;;;;;14.85;7.75;;;9.50;99.90;;;;;;5035908;28;20050;-66
2022/03/14 12:19:57;;;;;;;13.45;6.55;;;9.30;99.90;;;;;;5035865;28;20049;-66
2022/03/14 12:22:29;;;;;;;13.02;6.95;;;9.30;99.90;;;;;;5035745;28;20211;-67
2022/03/14 12:24:59;;;;;;;14.93;6.57;;;9.50;99.90;;;;;;5034603;28;20049;-67
2022/03/14 12:27:26;;;;;;;15.05;7.00;;;9.30;99.90;;;;;;5034443;28;20098;-67
2022/03/14 12:29:56;;;;;;;15.48;7.07;;;9.30;99.90;;;;;;5035351;28;20058;-67
2022/03/14 12:32:55;;;;;;;12.90;6.80;;;9.30;99.90;;;;;;5034943;28;20059;-66
2022/03/14 12:35:25;;;;;;;15.57;7.53;;;9.30;99.90;;;;;;5034970;28;20044;-67
2022/03/14 12:37:52;;;;;;;15.82;7.50;;;9.30;99.90;;;;;;5033181;28;20132;-67
2022/03/14 12:40:21;;;;;;;15.07;7.07;;;9.30;99.90;;;;;;5035497;28;20068;-67
2022/03/14 12:42:56;;;;;;;16.52;7.38;;;9.30;99.90;;;;;;5035414;28;20046;-66
2022/03/14 12:45:29;;;;;;;15.10;6.68;;;9.30;99.90;;;;;;5035214;28;20046;-67
2022/03/14 12:48:04;;;;;;;14.77;7.25;;;9.40;99.90;;;;;;5035390;28;20064;-67
2022/03/14 12:50:51;;;;;;;16.95;7.20;;;9.30;99.90;;;;;;5033788;28;20509;-67
2022/03/14 12:53:30;;;;;;;12.57;7.15;;;9.30;99.90;;;;;;5035186;28;20045;-67
2022/03/14 12:55:57;;;;;;;15.48;7.50;;;9.40;99.90;;;;;;5035207;28;20041;-67